sensor_id;sensor_type;location;lat;lon;timestamp;P1;durP1;ratioP1;P2;durP2;ratioP2
35223;SDS011;21367;51.930;8.112;2024-01-11T00:01:12;85.47;;;26.08;;
35223;SDS011;21367;51.930;8.112;2024-01-11T00:06:19;89.53;;;26.73;;
35223;SDS011;21367;51.930;8.112;2024-01-11T00:11:23;89.03;;;25.27;;
35223;SDS011;21367;51.930;8.112;2024-01-11T00:16:27;96.20;;;27.50;;
35223;SDS011;21367;51.930;8.112;2024-01-11T00:21:33;90.15;;;27.85;;
35223;SDS011;21367;51.930;8.112;2024-01-11T00:26:37;92.55;;;26.83;;
35223;SDS011;21367;51.930;8.112;2024-01-11T00:31:41;80.18;;;27.17;;
35223;SDS011;21367;51.930;8.112;2024-01-11T00:36:47;87.93;;;27.60;;
35223;SDS011;21367;51.930;8.112;2024-01-11T00:41:51;99.88;;;28.52;;
35223;SDS011;21367;51.930;8.112;2024-01-11T00:46:55;96.40;;;28.98;;
35223;SDS011;21367;51.930;8.112;2024-01-11T00:52:01;97.72;;;27.60;;
35223;SDS011;21367;51.930;8.112;2024-01-11T00:57:05;94.43;;;27.23;;
35223;SDS011;21367;51.930;8.112;2024-01-11T01:02:09;95.95;;;28.83;;
35223;SDS011;21367;51.930;8.112;2024-01-11T01:07:16;93.32;;;26.80;;
35223;SDS011;21367;51.930;8.112;2024-01-11T01:12:19;84.80;;;26.15;;
35223;SDS011;21367;51.930;8.112;2024-01-11T01:17:25;77.32;;;26.63;;
35223;SDS011;21367;51.930;8.112;2024-01-11T01:22:31;92.57;;;26.85;;
35223;SDS011;21367;51.930;8.112;2024-01-11T01:27:35;89.75;;;25.52;;
35223;SDS011;21367;51.930;8.112;2024-01-11T01:32:38;87.90;;;26.80;;
35223;SDS011;21367;51.930;8.112;2024-01-11T01:37:44;91.57;;;26.70;;
35223;SDS011;21367;51.930;8.112;2024-01-11T01:42:48;86.70;;;25.73;;
35223;SDS011;21367;51.930;8.112;2024-01-11T01:47:52;94.75;;;27.30;;
35223;SDS011;21367;51.930;8.112;2024-01-11T01:52:59;84.53;;;26.13;;
35223;SDS011;21367;51.930;8.112;2024-01-11T01:58:03;91.75;;;26.40;;
35223;SDS011;21367;51.930;8.112;2024-01-11T02:03:07;96.93;;;28.25;;
35223;SDS011;21367;51.930;8.112;2024-01-11T02:08:15;87.13;;;26.20;;
35223;SDS011;21367;51.930;8.112;2024-01-11T02:13:20;86.65;;;27.02;;
35223;SDS011;21367;51.930;8.112;2024-01-11T02:18:24;86.07;;;27.23;;
35223;SDS011;21367;51.930;8.112;2024-01-11T02:23:30;86.03;;;25.85;;
35223;SDS011;21367;51.930;8.112;2024-01-11T02:28:36;90.55;;;26.67;;
35223;SDS011;21367;51.930;8.112;2024-01-11T02:39:45;93.63;;;26.52;;
35223;SDS011;21367;51.930;8.112;2024-01-11T02:44:51;84.07;;;25.77;;
35223;SDS011;21367;51.930;8.112;2024-01-11T02:49:55;88.10;;;25.27;;
35223;SDS011;21367;51.930;8.112;2024-01-11T02:54:59;80.50;;;26.58;;
35223;SDS011;21367;51.930;8.112;2024-01-11T03:00:06;89.32;;;25.52;;
35223;SDS011;21367;51.930;8.112;2024-01-11T03:05:10;92.78;;;26.65;;
35223;SDS011;21367;51.930;8.112;2024-01-11T03:10:14;80.13;;;26.63;;
35223;SDS011;21367;51.930;8.112;2024-01-11T03:15:21;85.95;;;25.48;;
35223;SDS011;21367;51.930;8.112;2024-01-11T03:20:24;93.30;;;25.38;;
35223;SDS011;21367;51.930;8.112;2024-01-11T03:25:29;93.15;;;25.80;;
35223;SDS011;21367;51.930;8.112;2024-01-11T03:30:36;86.07;;;25.73;;
35223;SDS011;21367;51.930;8.112;2024-01-11T03:35:41;91.32;;;25.80;;
35223;SDS011;21367;51.930;8.112;2024-01-11T03:40:45;82.38;;;25.17;;
35223;SDS011;21367;51.930;8.112;2024-01-11T03:45:51;87.05;;;24.80;;
35223;SDS011;21367;51.930;8.112;2024-01-11T03:50:54;95.57;;;26.90;;
35223;SDS011;21367;51.930;8.112;2024-01-11T03:55:58;85.65;;;26.98;;
35223;SDS011;21367;51.930;8.112;2024-01-11T04:01:05;91.85;;;25.77;;
35223;SDS011;21367;51.930;8.112;2024-01-11T04:06:18;95.55;;;25.27;;
35223;SDS011;21367;51.930;8.112;2024-01-11T04:11:26;91.35;;;26.80;;
35223;SDS011;21367;51.930;8.112;2024-01-11T04:16:33;80.38;;;23.50;;
35223;SDS011;21367;51.930;8.112;2024-01-11T04:21:36;98.60;;;27.67;;
35223;SDS011;21367;51.930;8.112;2024-01-11T04:26:40;90.80;;;25.70;;
35223;SDS011;21367;51.930;8.112;2024-01-11T04:31:46;81.13;;;23.63;;
35223;SDS011;21367;51.930;8.112;2024-01-11T04:36:50;89.13;;;25.33;;
35223;SDS011;21367;51.930;8.112;2024-01-11T04:41:54;76.35;;;24.42;;
35223;SDS011;21367;51.930;8.112;2024-01-11T04:47:00;95.13;;;26.40;;
35223;SDS011;21367;51.930;8.112;2024-01-11T04:52:04;86.93;;;24.75;;
35223;SDS011;21367;51.930;8.112;2024-01-11T04:57:08;84.75;;;24.15;;
35223;SDS011;21367;51.930;8.112;2024-01-11T05:02:14;86.82;;;25.27;;
35223;SDS011;21367;51.930;8.112;2024-01-11T05:07:18;85.95;;;25.88;;
35223;SDS011;21367;51.930;8.112;2024-01-11T05:12:22;80.90;;;25.40;;
35223;SDS011;21367;51.930;8.112;2024-01-11T05:17:28;77.85;;;24.58;;
35223;SDS011;21367;51.930;8.112;2024-01-11T05:22:32;85.40;;;24.70;;
35223;SDS011;21367;51.930;8.112;2024-01-11T05:27:35;86.28;;;26.08;;
35223;SDS011;21367;51.930;8.112;2024-01-11T05:32:41;88.80;;;27.42;;
35223;SDS011;21367;51.930;8.112;2024-01-11T05:37:45;90.93;;;25.75;;
35223;SDS011;21367;51.930;8.112;2024-01-11T05:42:49;83.07;;;25.17;;
35223;SDS011;21367;51.930;8.112;2024-01-11T05:47:55;100.80;;;28.25;;
35223;SDS011;21367;51.930;8.112;2024-01-11T05:52:58;88.25;;;26.60;;
35223;SDS011;21367;51.930;8.112;2024-01-11T05:58:02;99.00;;;27.83;;
35223;SDS011;21367;51.930;8.112;2024-01-11T06:03:09;92.68;;;28.30;;
35223;SDS011;21367;51.930;8.112;2024-01-11T06:08:14;99.75;;;29.13;;
35223;SDS011;21367;51.930;8.112;2024-01-11T06:13:18;96.00;;;31.50;;
35223;SDS011;21367;51.930;8.112;2024-01-11T06:18:24;105.75;;;30.05;;
35223;SDS011;21367;51.930;8.112;2024-01-11T06:23:28;99.60;;;29.83;;
35223;SDS011;21367;51.930;8.112;2024-01-11T06:28:31;99.93;;;29.48;;
35223;SDS011;21367;51.930;8.112;2024-01-11T06:33:38;98.13;;;28.90;;
35223;SDS011;21367;51.930;8.112;2024-01-11T06:38:41;93.18;;;28.55;;
35223;SDS011;21367;51.930;8.112;2024-01-11T06:43:51;99.20;;;29.65;;
35223;SDS011;21367;51.930;8.112;2024-01-11T06:48:57;93.95;;;30.77;;
35223;SDS011;21367;51.930;8.112;2024-01-11T06:54:01;86.93;;;26.77;;
35223;SDS011;21367;51.930;8.112;2024-01-11T06:59:04;86.53;;;28.05;;
35223;SDS011;21367;51.930;8.112;2024-01-11T07:04:10;101.88;;;28.48;;
35223;SDS011;21367;51.930;8.112;2024-01-11T07:09:14;95.15;;;26.85;;
35223;SDS011;21367;51.930;8.112;2024-01-11T07:14:18;100.55;;;26.27;;
35223;SDS011;21367;51.930;8.112;2024-01-11T07:19:25;87.15;;;26.33;;
35223;SDS011;21367;51.930;8.112;2024-01-11T07:24:28;90.85;;;26.67;;
35223;SDS011;21367;51.930;8.112;2024-01-11T07:29:37;97.70;;;25.23;;
35223;SDS011;21367;51.930;8.112;2024-01-11T07:34:44;92.47;;;26.83;;
35223;SDS011;21367;51.930;8.112;2024-01-11T07:39:47;82.60;;;25.58;;
35223;SDS011;21367;51.930;8.112;2024-01-11T07:44:51;88.22;;;26.55;;
35223;SDS011;21367;51.930;8.112;2024-01-11T07:49:57;96.18;;;27.63;;
35223;SDS011;21367;51.930;8.112;2024-01-11T07:55:01;95.47;;;27.42;;
35223;SDS011;21367;51.930;8.112;2024-01-11T08:00:08;92.03;;;26.85;;
35223;SDS011;21367;51.930;8.112;2024-01-11T08:05:17;108.57;;;29.42;;
35223;SDS011;21367;51.930;8.112;2024-01-11T08:10:21;100.18;;;27.58;;
35223;SDS011;21367;51.930;8.112;2024-01-11T08:15:24;111.32;;;29.45;;
35223;SDS011;21367;51.930;8.112;2024-01-11T08:20:31;98.68;;;29.40;;
35223;SDS011;21367;51.930;8.112;2024-01-11T08:25:34;98.78;;;28.73;;
35223;SDS011;21367;51.930;8.112;2024-01-11T08:30:38;102.30;;;27.73;;
35223;SDS011;21367;51.930;8.112;2024-01-11T08:35:45;97.83;;;29.50;;
35223;SDS011;21367;51.930;8.112;2024-01-11T08:40:51;105.00;;;30.10;;
35223;SDS011;21367;51.930;8.112;2024-01-11T08:45:55;95.82;;;29.25;;
35223;SDS011;21367;51.930;8.112;2024-01-11T08:51:01;103.13;;;29.35;;
35223;SDS011;21367;51.930;8.112;2024-01-11T08:56:05;111.13;;;32.47;;
35223;SDS011;21367;51.930;8.112;2024-01-11T09:01:08;96.40;;;29.67;;
35223;SDS011;21367;51.930;8.112;2024-01-11T09:06:15;97.82;;;30.00;;
35223;SDS011;21367;51.930;8.112;2024-01-11T09:11:18;92.47;;;29.05;;
35223;SDS011;21367;51.930;8.112;2024-01-11T09:16:22;97.93;;;29.42;;
35223;SDS011;21367;51.930;8.112;2024-01-11T09:21:28;94.25;;;28.35;;
35223;SDS011;21367;51.930;8.112;2024-01-11T09:26:32;96.28;;;28.20;;
35223;SDS011;21367;51.930;8.112;2024-01-11T09:31:36;97.85;;;29.38;;
35223;SDS011;21367;51.930;8.112;2024-01-11T09:36:42;93.35;;;28.20;;
35223;SDS011;21367;51.930;8.112;2024-01-11T09:41:47;93.55;;;28.95;;
35223;SDS011;21367;51.930;8.112;2024-01-11T09:46:55;88.15;;;27.30;;
35223;SDS011;21367;51.930;8.112;2024-01-11T09:52:05;86.53;;;28.02;;
35223;SDS011;21367;51.930;8.112;2024-01-11T09:57:11;82.60;;;26.05;;
35223;SDS011;21367;51.930;8.112;2024-01-11T10:02:14;85.15;;;28.30;;
35223;SDS011;21367;51.930;8.112;2024-01-11T10:07:22;82.85;;;27.73;;
35223;SDS011;21367;51.930;8.112;2024-01-11T10:12:26;92.13;;;27.58;;
35223;SDS011;21367;51.930;8.112;2024-01-11T10:17:31;82.20;;;28.48;;
35223;SDS011;21367;51.930;8.112;2024-01-11T10:22:37;84.57;;;27.38;;
35223;SDS011;21367;51.930;8.112;2024-01-11T10:27:41;77.75;;;25.63;;
35223;SDS011;21367;51.930;8.112;2024-01-11T10:32:46;83.23;;;26.87;;
35223;SDS011;21367;51.930;8.112;2024-01-11T10:37:53;79.13;;;26.95;;
35223;SDS011;21367;51.930;8.112;2024-01-11T10:42:58;80.43;;;27.50;;
35223;SDS011;21367;51.930;8.112;2024-01-11T10:48:06;80.72;;;25.83;;
35223;SDS011;21367;51.930;8.112;2024-01-11T10:53:21;77.15;;;24.92;;
35223;SDS011;21367;51.930;8.112;2024-01-11T10:58:32;86.80;;;25.85;;
35223;SDS011;21367;51.930;8.112;2024-01-11T11:03:36;81.93;;;26.27;;
35223;SDS011;21367;51.930;8.112;2024-01-11T11:08:45;75.50;;;23.88;;
35223;SDS011;21367;51.930;8.112;2024-01-11T11:13:52;64.13;;;21.25;;
35223;SDS011;21367;51.930;8.112;2024-01-11T11:18:57;62.45;;;20.50;;
35223;SDS011;21367;51.930;8.112;2024-01-11T11:24:03;59.08;;;20.25;;
35223;SDS011;21367;51.930;8.112;2024-01-11T11:29:08;63.42;;;21.50;;
35223;SDS011;21367;51.930;8.112;2024-01-11T11:34:12;57.40;;;19.40;;
35223;SDS011;21367;51.930;8.112;2024-01-11T11:39:21;50.47;;;19.20;;
35223;SDS011;21367;51.930;8.112;2024-01-11T11:44:24;53.28;;;18.08;;
35223;SDS011;21367;51.930;8.112;2024-01-11T11:55:09;39.58;;;13.68;;
35223;SDS011;21367;51.930;8.112;2024-01-11T12:00:13;37.60;;;12.32;;
35223;SDS011;21367;51.930;8.112;2024-01-11T12:05:18;37.90;;;11.87;;
35223;SDS011;21367;51.930;8.112;2024-01-11T12:10:24;33.88;;;11.82;;
35223;SDS011;21367;51.930;8.112;2024-01-11T12:20:32;28.85;;;10.52;;
35223;SDS011;21367;51.930;8.112;2024-01-11T12:25:41;32.75;;;11.05;;
35223;SDS011;21367;51.930;8.112;2024-01-11T12:30:45;29.40;;;11.43;;
35223;SDS011;21367;51.930;8.112;2024-01-11T12:35:49;30.17;;;10.93;;
35223;SDS011;21367;51.930;8.112;2024-01-11T12:40:55;34.72;;;11.75;;
35223;SDS011;21367;51.930;8.112;2024-01-11T12:45:59;38.00;;;13.25;;
35223;SDS011;21367;51.930;8.112;2024-01-11T12:51:04;33.80;;;11.40;;
35223;SDS011;21367;51.930;8.112;2024-01-11T12:56:12;30.13;;;11.30;;
35223;SDS011;21367;51.930;8.112;2024-01-11T13:01:18;34.10;;;12.68;;
35223;SDS011;21367;51.930;8.112;2024-01-11T13:06:22;39.70;;;14.95;;
35223;SDS011;21367;51.930;8.112;2024-01-11T13:11:29;37.97;;;13.13;;
35223;SDS011;21367;51.930;8.112;2024-01-11T13:16:33;38.80;;;12.73;;
35223;SDS011;21367;51.930;8.112;2024-01-11T13:21:37;36.22;;;11.68;;
35223;SDS011;21367;51.930;8.112;2024-01-11T13:26:45;47.15;;;13.50;;
35223;SDS011;21367;51.930;8.112;2024-01-11T13:31:52;38.42;;;13.18;;
35223;SDS011;21367;51.930;8.112;2024-01-11T13:36:57;42.38;;;14.57;;
35223;SDS011;21367;51.930;8.112;2024-01-11T13:47:12;42.83;;;13.27;;
35223;SDS011;21367;51.930;8.112;2024-01-11T13:52:19;46.97;;;15.30;;
35223;SDS011;21367;51.930;8.112;2024-01-11T13:57:26;41.72;;;13.70;;
35223;SDS011;21367;51.930;8.112;2024-01-11T14:02:30;41.85;;;14.65;;
35223;SDS011;21367;51.930;8.112;2024-01-11T14:07:35;40.60;;;15.60;;
35223;SDS011;21367;51.930;8.112;2024-01-11T14:12:42;48.90;;;16.52;;
35223;SDS011;21367;51.930;8.112;2024-01-11T14:17:45;45.42;;;15.27;;
35223;SDS011;21367;51.930;8.112;2024-01-11T14:22:50;51.17;;;17.02;;
35223;SDS011;21367;51.930;8.112;2024-01-11T14:27:57;50.55;;;17.10;;
35223;SDS011;21367;51.930;8.112;2024-01-11T14:33:02;51.70;;;16.33;;
35223;SDS011;21367;51.930;8.112;2024-01-11T14:38:06;57.30;;;18.73;;
35223;SDS011;21367;51.930;8.112;2024-01-11T14:43:12;59.38;;;17.08;;
35223;SDS011;21367;51.930;8.112;2024-01-11T14:48:16;60.03;;;16.02;;
35223;SDS011;21367;51.930;8.112;2024-01-11T14:53:21;49.53;;;16.90;;
35223;SDS011;21367;51.930;8.112;2024-01-11T14:58:28;59.55;;;17.33;;
35223;SDS011;21367;51.930;8.112;2024-01-11T15:03:32;66.53;;;21.25;;
35223;SDS011;21367;51.930;8.112;2024-01-11T15:08:35;60.88;;;20.00;;
35223;SDS011;21367;51.930;8.112;2024-01-11T15:13:41;50.08;;;17.25;;
35223;SDS011;21367;51.930;8.112;2024-01-11T15:23:48;61.97;;;19.48;;
35223;SDS011;21367;51.930;8.112;2024-01-11T15:28:55;64.47;;;21.45;;
35223;SDS011;21367;51.930;8.112;2024-01-11T15:33:59;65.40;;;22.38;;
35223;SDS011;21367;51.930;8.112;2024-01-11T15:39:03;70.63;;;20.42;;
35223;SDS011;21367;51.930;8.112;2024-01-11T15:44:09;61.28;;;20.38;;
35223;SDS011;21367;51.930;8.112;2024-01-11T15:49:13;67.38;;;22.20;;
35223;SDS011;21367;51.930;8.112;2024-01-11T15:54:16;54.88;;;18.77;;
35223;SDS011;21367;51.930;8.112;2024-01-11T15:59:23;64.03;;;20.02;;
35223;SDS011;21367;51.930;8.112;2024-01-11T16:04:27;59.45;;;19.58;;
35223;SDS011;21367;51.930;8.112;2024-01-11T16:09:30;59.25;;;20.30;;
35223;SDS011;21367;51.930;8.112;2024-01-11T16:14:37;64.85;;;22.98;;
35223;SDS011;21367;51.930;8.112;2024-01-11T16:19:40;78.43;;;23.55;;
35223;SDS011;21367;51.930;8.112;2024-01-11T16:24:44;74.80;;;21.90;;
35223;SDS011;21367;51.930;8.112;2024-01-11T16:29:50;63.63;;;20.98;;
35223;SDS011;21367;51.930;8.112;2024-01-11T16:34:54;63.40;;;20.90;;
35223;SDS011;21367;51.930;8.112;2024-01-11T16:39:57;64.47;;;20.35;;
35223;SDS011;21367;51.930;8.112;2024-01-11T16:45:04;66.00;;;21.75;;
35223;SDS011;21367;51.930;8.112;2024-01-11T16:50:08;77.63;;;25.08;;
35223;SDS011;21367;51.930;8.112;2024-01-11T16:55:12;74.50;;;25.83;;
35223;SDS011;21367;51.930;8.112;2024-01-11T17:00:19;77.07;;;23.38;;
35223;SDS011;21367;51.930;8.112;2024-01-11T17:05:23;75.40;;;24.27;;
35223;SDS011;21367;51.930;8.112;2024-01-11T17:10:27;78.28;;;24.10;;
35223;SDS011;21367;51.930;8.112;2024-01-11T17:15:33;65.28;;;23.33;;
35223;SDS011;21367;51.930;8.112;2024-01-11T17:20:37;71.35;;;22.85;;
35223;SDS011;21367;51.930;8.112;2024-01-11T17:25:41;76.85;;;22.88;;
35223;SDS011;21367;51.930;8.112;2024-01-11T17:30:47;79.30;;;24.42;;
35223;SDS011;21367;51.930;8.112;2024-01-11T17:35:51;81.32;;;24.52;;
35223;SDS011;21367;51.930;8.112;2024-01-11T17:40:55;78.90;;;24.15;;
35223;SDS011;21367;51.930;8.112;2024-01-11T17:46:01;69.68;;;22.52;;
35223;SDS011;21367;51.930;8.112;2024-01-11T17:51:09;83.45;;;24.65;;
35223;SDS011;21367;51.930;8.112;2024-01-11T17:56:14;70.82;;;23.25;;
35223;SDS011;21367;51.930;8.112;2024-01-11T18:01:25;84.43;;;24.02;;
35223;SDS011;21367;51.930;8.112;2024-01-11T18:06:29;80.30;;;24.40;;
35223;SDS011;21367;51.930;8.112;2024-01-11T18:11:32;66.88;;;23.95;;
35223;SDS011;21367;51.930;8.112;2024-01-11T18:16:39;75.53;;;22.90;;
35223;SDS011;21367;51.930;8.112;2024-01-11T18:21:42;68.00;;;21.92;;
35223;SDS011;21367;51.930;8.112;2024-01-11T18:26:45;72.78;;;22.83;;
35223;SDS011;21367;51.930;8.112;2024-01-11T18:31:52;77.68;;;23.90;;
35223;SDS011;21367;51.930;8.112;2024-01-11T18:36:56;74.38;;;24.77;;
35223;SDS011;21367;51.930;8.112;2024-01-11T18:42:00;81.78;;;25.80;;
35223;SDS011;21367;51.930;8.112;2024-01-11T18:47:06;79.78;;;25.10;;
35223;SDS011;21367;51.930;8.112;2024-01-11T18:52:11;73.85;;;24.65;;
35223;SDS011;21367;51.930;8.112;2024-01-11T18:57:15;81.05;;;25.60;;
35223;SDS011;21367;51.930;8.112;2024-01-11T19:02:21;84.55;;;26.48;;
35223;SDS011;21367;51.930;8.112;2024-01-11T19:07:25;86.85;;;28.08;;
35223;SDS011;21367;51.930;8.112;2024-01-11T19:12:28;82.68;;;26.60;;
35223;SDS011;21367;51.930;8.112;2024-01-11T19:17:35;76.63;;;26.10;;
35223;SDS011;21367;51.930;8.112;2024-01-11T19:27:42;82.72;;;26.70;;
35223;SDS011;21367;51.930;8.112;2024-01-11T19:32:48;83.53;;;27.08;;
35223;SDS011;21367;51.930;8.112;2024-01-11T19:37:52;76.47;;;24.95;;
35223;SDS011;21367;51.930;8.112;2024-01-11T19:42:56;82.03;;;27.90;;
35223;SDS011;21367;51.930;8.112;2024-01-11T19:48:03;91.35;;;28.27;;
35223;SDS011;21367;51.930;8.112;2024-01-11T19:53:07;91.75;;;29.20;;
35223;SDS011;21367;51.930;8.112;2024-01-11T19:58:11;82.22;;;27.60;;
35223;SDS011;21367;51.930;8.112;2024-01-11T20:03:17;98.35;;;29.27;;
35223;SDS011;21367;51.930;8.112;2024-01-11T20:08:21;89.05;;;27.50;;
35223;SDS011;21367;51.930;8.112;2024-01-11T20:13:25;87.10;;;29.08;;
35223;SDS011;21367;51.930;8.112;2024-01-11T20:18:31;79.07;;;26.13;;
35223;SDS011;21367;51.930;8.112;2024-01-11T20:23:35;74.18;;;24.42;;
35223;SDS011;21367;51.930;8.112;2024-01-11T20:28:42;68.93;;;23.20;;
35223;SDS011;21367;51.930;8.112;2024-01-11T20:33:49;64.40;;;23.35;;
35223;SDS011;21367;51.930;8.112;2024-01-11T20:38:52;69.82;;;24.38;;
35223;SDS011;21367;51.930;8.112;2024-01-11T20:43:56;72.28;;;24.38;;
35223;SDS011;21367;51.930;8.112;2024-01-11T20:49:02;97.10;;;27.38;;
35223;SDS011;21367;51.930;8.112;2024-01-11T20:54:06;76.13;;;26.55;;
35223;SDS011;21367;51.930;8.112;2024-01-11T20:59:10;64.53;;;22.35;;
35223;SDS011;21367;51.930;8.112;2024-01-11T21:04:16;69.32;;;23.80;;
35223;SDS011;21367;51.930;8.112;2024-01-11T21:14:23;66.70;;;23.00;;
35223;SDS011;21367;51.930;8.112;2024-01-11T21:19:30;65.90;;;21.40;;
35223;SDS011;21367;51.930;8.112;2024-01-11T21:29:37;63.53;;;21.65;;
35223;SDS011;21367;51.930;8.112;2024-01-11T21:34:43;62.42;;;22.48;;
35223;SDS011;21367;51.930;8.112;2024-01-11T21:39:47;60.38;;;21.98;;
35223;SDS011;21367;51.930;8.112;2024-01-11T21:44:50;62.75;;;22.48;;
35223;SDS011;21367;51.930;8.112;2024-01-11T21:49:56;54.92;;;20.65;;
35223;SDS011;21367;51.930;8.112;2024-01-11T21:55:00;54.83;;;20.90;;
35223;SDS011;21367;51.930;8.112;2024-01-11T22:00:06;59.77;;;20.90;;
35223;SDS011;21367;51.930;8.112;2024-01-11T22:05:13;63.08;;;22.33;;
35223;SDS011;21367;51.930;8.112;2024-01-11T22:15:20;61.80;;;21.63;;
35223;SDS011;21367;51.930;8.112;2024-01-11T22:20:26;62.55;;;21.20;;
35223;SDS011;21367;51.930;8.112;2024-01-11T22:30:34;54.20;;;20.20;;
35223;SDS011;21367;51.930;8.112;2024-01-11T22:35:41;63.55;;;22.15;;
35223;SDS011;21367;51.930;8.112;2024-01-11T22:40:45;67.45;;;23.42;;
35223;SDS011;21367;51.930;8.112;2024-01-11T22:45:49;69.85;;;22.13;;
35223;SDS011;21367;51.930;8.112;2024-01-11T22:50:55;65.70;;;22.02;;
35223;SDS011;21367;51.930;8.112;2024-01-11T22:55:59;73.38;;;23.13;;
35223;SDS011;21367;51.930;8.112;2024-01-11T23:01:04;61.97;;;21.08;;
35223;SDS011;21367;51.930;8.112;2024-01-11T23:06:10;65.40;;;23.40;;
35223;SDS011;21367;51.930;8.112;2024-01-11T23:11:13;56.95;;;21.08;;
35223;SDS011;21367;51.930;8.112;2024-01-11T23:16:17;62.30;;;21.15;;
35223;SDS011;21367;51.930;8.112;2024-01-11T23:21:23;64.07;;;22.42;;
35223;SDS011;21367;51.930;8.112;2024-01-11T23:31:31;56.95;;;19.58;;
35223;SDS011;21367;51.930;8.112;2024-01-11T23:36:37;59.72;;;19.80;;
35223;SDS011;21367;51.930;8.112;2024-01-11T23:41:40;59.17;;;21.08;;
35223;SDS011;21367;51.930;8.112;2024-01-11T23:46:44;61.75;;;20.90;;
35223;SDS011;21367;51.930;8.112;2024-01-11T23:51:51;71.20;;;21.92;;
35223;SDS011;21367;51.930;8.112;2024-01-11T23:56:55;73.25;;;25.05;;
